Terminal Aerodrome Forecast
Issued by NWS

Home | Current Version | Previous Version | Text Only | Print | Product List | Glossary On
Versions: 1 2 3 4 5 6 7 8 9 10 11 12 13 14 15 16 17 18
000
FTAK31 PAJN 201100 RRA
TAFAKT
TAF
PAKT 201142Z 2012/2112 15015G30KT P6SM -RA OVC035 WS020/13045KT
      TEMPO 2012/2016 5SM -RA BR BKN025 OVC035
     FM202000 15012G22KT 4SM -RA BR BKN015 OVC030
     FM202300 16012G20KT 6SM -SHRA BKN025 OVC050
      AMD LTD TO CLD VIS AND WIND 2012/2015=

USA.gov is the U.S. government's official web portal to all federal, state and local government web resources and services.